createdAt,value
2019-01-21T00:00:18.042Z,78.85
2019-01-21T00:01:17.983Z,78.85
2019-01-21T00:02:18.158Z,78.75
2019-01-21T00:03:17.945Z,79.06
2019-01-21T00:04:17.927Z,78.99
2019-01-21T00:05:17.948Z,78.99
2019-01-21T00:06:17.926Z,79.31
2019-01-21T00:07:17.898Z,79.21
2019-01-21T00:08:17.899Z,79.52
2019-01-21T00:09:17.890Z,79.52
2019-01-21T00:10:17.862Z,79.62
2019-01-21T00:11:17.854Z,80.04
2019-01-21T00:12:17.858Z,80.26
2019-01-21T00:13:17.837Z,80.26
2019-01-21T00:14:17.843Z,80.15
2019-01-21T00:15:17.809Z,80.99
2019-01-21T00:16:17.803Z,80.57
2019-01-21T00:17:22.282Z,80.46
2019-01-21T00:18:17.781Z,80.57
2019-01-21T00:19:17.765Z,80.57
2019-01-21T00:20:17.768Z,80.46
2019-01-21T00:21:17.753Z,80.36
2019-01-21T00:22:17.762Z,80.78
2019-01-21T00:23:17.726Z,79.83
2019-01-21T00:24:17.716Z,79.94
2019-01-21T00:25:25.303Z,79.73
2019-01-21T00:26:26.288Z,80.04
2019-01-21T00:27:26.479Z,80.26
2019-01-21T00:28:17.725Z,79.83
2019-01-21T00:29:25.314Z,79.94
2019-01-21T00:30:25.220Z,79.73
2019-01-21T00:31:25.237Z,79.62
2019-01-21T00:32:25.270Z,79.73
2019-01-21T00:33:25.230Z,79.77
2019-01-21T00:34:17.688Z,79.45
2019-01-21T00:36:33.797Z,79.73
2019-01-21T00:37:33.847Z,79.77
2019-01-21T00:38:42.390Z,80.50
2019-01-21T00:39:33.850Z,80.82
2019-01-21T00:40:33.737Z,80.60
2019-01-21T00:41:41.302Z,80.40
2019-01-21T00:42:43.647Z,80.92
2019-01-21T00:43:42.480Z,80.18
2019-01-21T00:44:41.258Z,80.64
2019-01-21T00:45:41.275Z,81.02
2019-01-21T00:46:41.563Z,81.02
2019-01-21T00:47:41.256Z,81.06
2019-01-21T00:48:45.724Z,81.24
2019-01-21T00:49:42.543Z,81.24
2019-01-21T00:51:55.910Z,81.06
2019-01-21T00:54:05.253Z,81.38
2019-01-21T00:56:14.344Z,81.59
2019-01-21T00:57:23.890Z,80.96
2019-01-21T00:58:23.141Z,81.06
2019-01-21T00:59:23.129Z,81.06
2019-01-21T01:00:14.257Z,80.96
2019-01-21T01:01:14.289Z,80.96
2019-01-21T01:02:14.635Z,80.96
2019-01-21T01:03:14.250Z,81.27
2019-01-21T01:04:14.213Z,81.16
2019-01-21T01:05:14.232Z,80.85
2019-01-21T01:06:14.195Z,81.38
2019-01-21T01:07:14.180Z,81.06
2019-01-21T01:08:14.230Z,80.75
2019-01-21T01:09:14.291Z,80.43
2019-01-21T01:10:14.213Z,80.54
2019-01-21T01:12:30.356Z,80.64
2019-01-21T01:13:30.324Z,80.01
2019-01-21T01:14:30.301Z,79.69
2019-01-21T01:15:30.282Z,79.69
2019-01-21T01:16:30.272Z,79.49
2019-01-21T01:17:39.146Z,79.06
2019-01-21T01:18:30.369Z,79.38
2019-01-21T01:19:30.327Z,79.17
2019-01-21T01:20:30.225Z,79.06
2019-01-21T01:21:30.222Z,78.96
2019-01-21T01:22:30.265Z,78.85
2019-01-21T01:23:30.206Z,79.06
2019-01-21T01:24:30.204Z,78.96
2019-01-21T01:25:30.361Z,78.96
2019-01-21T01:26:30.170Z,78.85
2019-01-21T01:27:30.157Z,78.96
2019-01-21T01:28:30.184Z,78.96
2019-01-21T01:29:30.269Z,78.85
2019-01-21T01:30:30.123Z,79.06
2019-01-21T01:31:30.121Z,78.78
2019-01-21T01:32:37.648Z,78.75
2019-01-21T01:33:30.094Z,78.85
2019-01-21T01:34:30.239Z,79.10
2019-01-21T01:35:30.097Z,79.06
2019-01-21T01:36:30.100Z,79.21
2019-01-21T01:37:30.260Z,79.21
2019-01-21T01:38:30.033Z,79.27
2019-01-21T01:39:30.051Z,79.38
2019-01-21T01:40:30.013Z,79.52
2019-01-21T01:41:30.049Z,79.31
2019-01-21T01:42:29.993Z,79.73
2019-01-21T01:43:29.987Z,79.63
2019-01-21T01:44:29.993Z,79.63
2019-01-21T01:45:30.030Z,79.73
2019-01-21T01:46:29.961Z,79.83
2019-01-21T01:47:29.952Z,79.94
2019-01-21T01:48:29.931Z,80.05
2019-01-21T01:49:29.942Z,80.15
2019-01-21T01:50:30.330Z,80.68
2019-01-21T01:51:29.940Z,80.43
2019-01-21T01:52:29.887Z,80.47
2019-01-21T01:53:29.897Z,80.47
2019-01-21T01:54:29.888Z,80.43
2019-01-21T01:55:29.913Z,80.99
2019-01-21T01:56:29.846Z,80.15
2019-01-21T01:57:29.863Z,80.68
2019-01-21T01:58:29.849Z,80.36
2019-01-21T01:59:29.840Z,80.99
2019-01-21T02:00:29.813Z,79.83
2019-01-21T02:01:29.802Z,79.52
2019-01-21T02:02:29.786Z,79.00
2019-01-21T02:03:29.796Z,79.10
2019-01-21T02:04:29.785Z,79.00
2019-01-21T02:05:29.813Z,78.58
2019-01-21T02:06:29.745Z,79.21
2019-01-21T02:07:29.742Z,79.00
2019-01-21T02:08:29.728Z,79.00
2019-01-21T02:09:29.751Z,78.47
2019-01-21T02:10:29.700Z,78.05
2019-01-21T02:11:29.729Z,78.92
2019-01-21T02:12:29.678Z,78.50
2019-01-21T02:13:29.762Z,78.61
2019-01-21T02:14:29.678Z,79.03
2019-01-21T02:15:29.652Z,79.00
2019-01-21T02:16:29.657Z,78.61
2019-01-21T02:17:29.634Z,79.00
2019-01-21T02:18:29.630Z,79.00
2019-01-21T02:19:29.683Z,78.92
2019-01-21T02:20:29.591Z,79.03
2019-01-21T02:21:29.625Z,79.56
2019-01-21T02:22:29.571Z,79.24
2019-01-21T02:23:29.569Z,79.56
2019-01-21T02:24:29.594Z,80.08
2019-01-21T02:25:29.545Z,80.29
2019-01-21T02:26:29.535Z,80.61
2019-01-21T02:27:29.525Z,80.19
2019-01-21T02:28:29.514Z,80.61
2019-01-21T02:29:29.508Z,81.07
2019-01-21T02:30:29.511Z,80.19
2019-01-21T02:31:29.493Z,80.40
2019-01-21T02:32:29.467Z,80.71
2019-01-21T02:33:29.498Z,80.75
2019-01-21T02:34:29.452Z,79.87
2019-01-21T02:35:29.469Z,80.22
2019-01-21T02:36:29.434Z,79.77
2019-01-21T02:37:29.416Z,80.12
2019-01-21T02:38:29.420Z,80.12
2019-01-21T02:39:29.450Z,79.98
2019-01-21T02:40:29.398Z,80.12
2019-01-21T02:41:29.402Z,79.91
2019-01-21T02:42:29.440Z,79.91
2019-01-21T02:43:29.388Z,80.12
2019-01-21T02:44:29.344Z,79.91
2019-01-21T02:45:29.363Z,79.91
2019-01-21T02:46:29.397Z,79.91
2019-01-21T02:47:29.412Z,80.02
2019-01-21T02:50:11.719Z,79.91
2019-01-21T02:51:11.466Z,80.02
2019-01-21T02:52:11.506Z,80.33
2019-01-21T02:53:11.436Z,80.86
2019-01-21T02:54:11.428Z,80.12
2019-01-21T02:55:11.570Z,79.91
2019-01-21T02:58:02.936Z,79.91
2019-01-21T02:59:02.904Z,79.91
2019-01-21T03:00:02.868Z,80.02
2019-01-21T03:01:02.873Z,79.91
2019-01-21T03:02:02.864Z,80.02
2019-01-21T03:03:02.837Z,80.54
2019-01-21T03:04:02.826Z,80.75
2019-01-21T03:05:02.812Z,81.07
2019-01-21T03:06:02.838Z,80.96
2019-01-21T03:07:02.817Z,80.65
2019-01-21T03:08:02.779Z,81.38
2019-01-21T03:09:02.780Z,81.52
2019-01-21T03:10:02.788Z,81.00
2019-01-21T03:11:02.776Z,81.07
2019-01-21T03:12:02.789Z,81.49
2019-01-21T03:13:02.732Z,81.74
2019-01-21T03:14:02.739Z,81.38
2019-01-21T03:15:02.750Z,81.49
2019-01-21T03:16:02.696Z,82.01
2019-01-21T03:17:02.709Z,82.37
2019-01-21T03:18:07.924Z,82.75
2019-01-21T03:19:03.686Z,82.68
2019-01-21T03:20:02.651Z,82.26
2019-01-21T03:21:02.643Z,82.68
2019-01-21T03:22:02.662Z,82.68
2019-01-21T03:23:02.625Z,82.33
2019-01-21T03:24:10.217Z,82.47
2019-01-21T03:25:02.620Z,82.68
2019-01-21T03:26:02.640Z,82.54
2019-01-21T03:27:02.665Z,82.65
2019-01-21T03:28:02.700Z,82.37
2019-01-21T03:29:02.563Z,82.23
2019-01-21T03:30:02.558Z,81.91
2019-01-21T03:31:11.189Z,81.81
2019-01-21T03:32:02.569Z,81.74
2019-01-21T03:33:02.572Z,81.00
2019-01-21T03:34:02.507Z,81.52
2019-01-21T03:35:02.498Z,81.10
2019-01-21T03:36:02.515Z,81.49
2019-01-21T03:37:02.509Z,80.90
2019-01-21T03:38:02.553Z,81.52
2019-01-21T03:39:02.448Z,81.42
2019-01-21T03:40:02.438Z,81.52
2019-01-21T03:41:02.433Z,81.95
2019-01-21T03:42:02.423Z,81.63
2019-01-21T03:43:02.480Z,82.05
2019-01-21T03:44:02.394Z,82.26
2019-01-21T03:45:02.401Z,82.16
2019-01-21T03:46:02.509Z,82.68
2019-01-21T03:47:02.363Z,82.47
2019-01-21T03:48:02.402Z,82.58
2019-01-21T03:49:02.351Z,82.47
2019-01-21T03:50:02.471Z,83.11
2019-01-21T03:51:02.342Z,83.00
2019-01-21T03:52:11.268Z,83.00
2019-01-21T03:53:02.376Z,82.58
2019-01-21T03:54:02.326Z,82.68
2019-01-21T03:55:02.287Z,82.16
2019-01-21T03:56:02.271Z,82.37
2019-01-21T03:57:09.816Z,82.37
2019-01-21T03:58:02.285Z,82.37
2019-01-21T03:59:02.287Z,82.37
2019-01-21T04:00:02.266Z,82.16
2019-01-21T04:01:02.243Z,82.16
2019-01-21T04:02:02.212Z,82.23
2019-01-21T04:03:02.225Z,81.74
2019-01-21T04:04:02.327Z,81.10
2019-01-21T04:05:02.369Z,81.32
2019-01-21T04:06:02.197Z,81.32
2019-01-21T04:07:02.159Z,81.63
2019-01-21T04:08:02.211Z,81.52
2019-01-21T04:09:02.242Z,82.05
2019-01-21T04:10:02.120Z,81.95
2019-01-21T04:11:02.118Z,81.63
2019-01-21T04:12:02.115Z,81.74
2019-01-21T04:13:02.103Z,81.52
2019-01-21T04:14:02.100Z,81.63
2019-01-21T04:15:02.068Z,81.74
2019-01-21T04:16:02.084Z,80.90
2019-01-21T04:17:02.072Z,81.42
2019-01-21T04:18:02.038Z,81.52
2019-01-21T04:19:02.050Z,81.56
2019-01-21T04:20:02.043Z,81.24
2019-01-21T04:21:02.005Z,81.56
2019-01-21T04:22:01.992Z,81.56
2019-01-21T04:23:01.990Z,81.88
2019-01-21T04:24:01.977Z,81.24
2019-01-21T04:25:01.986Z,81.56
2019-01-21T04:26:01.968Z,81.14
2019-01-21T04:27:01.941Z,81.67
2019-01-21T04:28:01.935Z,81.46
2019-01-21T04:29:02.034Z,81.28
2019-01-21T04:30:01.948Z,81.46
2019-01-21T04:31:01.909Z,81.14
2019-01-21T04:32:01.886Z,81.24
2019-01-21T04:33:01.880Z,81.60
2019-01-21T04:34:01.871Z,81.46
2019-01-21T04:35:01.854Z,81.81
2019-01-21T04:36:01.865Z,81.92
2019-01-21T04:37:01.843Z,81.49
2019-01-21T04:38:01.823Z,81.81
2019-01-21T04:39:01.815Z,81.92
2019-01-21T04:40:01.810Z,81.39
2019-01-21T04:41:01.818Z,81.28
2019-01-21T04:42:01.813Z,81.63
2019-01-21T04:43:01.802Z,81.63
2019-01-21T04:44:01.765Z,82.06
2019-01-21T04:45:01.761Z,82.37
2019-01-21T04:46:01.760Z,82.48
2019-01-21T04:47:01.734Z,82.55
2019-01-21T04:48:01.726Z,82.69
2019-01-21T04:49:01.768Z,82.79
2019-01-21T04:50:01.726Z,82.37
2019-01-21T04:51:01.702Z,82.48
2019-01-21T04:52:01.727Z,82.69
2019-01-21T04:53:01.663Z,82.69
2019-01-21T04:54:10.271Z,82.48
2019-01-21T04:55:01.676Z,82.69
2019-01-21T04:56:01.675Z,82.79
2019-01-21T04:57:01.643Z,82.55
2019-01-21T04:58:01.628Z,82.48
2019-01-21T04:59:01.616Z,82.48
2019-01-21T05:00:01.624Z,82.27
2019-01-21T05:01:01.638Z,81.85
2019-01-21T05:02:01.621Z,81.74
2019-01-21T05:03:01.561Z,81.63
2019-01-21T05:04:01.588Z,81.63
2019-01-21T05:05:01.726Z,81.32
2019-01-21T05:06:01.549Z,81.32
2019-01-21T05:07:01.529Z,81.21
2019-01-21T05:08:01.535Z,81.21
2019-01-21T05:09:01.498Z,81.32
2019-01-21T05:10:01.510Z,81.32
2019-01-21T05:11:01.509Z,81.63
2019-01-21T05:12:01.489Z,81.11
2019-01-21T05:13:01.502Z,81.53
2019-01-21T05:14:01.539Z,81.74
2019-01-21T05:15:01.461Z,81.53
2019-01-21T05:16:01.479Z,81.21
2019-01-21T05:17:01.412Z,81.21
2019-01-21T05:18:01.464Z,80.90
2019-01-21T05:19:01.400Z,80.58
2019-01-21T05:20:01.394Z,80.90
2019-01-21T05:21:01.373Z,80.62
2019-01-21T05:22:01.394Z,80.83
2019-01-21T05:23:01.476Z,80.90
2019-01-21T05:24:01.343Z,81.46
2019-01-21T05:25:01.354Z,81.46
2019-01-21T05:26:01.325Z,81.21
2019-01-21T05:27:01.345Z,81.21
2019-01-21T05:28:01.377Z,81.21
2019-01-21T05:29:01.286Z,81.21
2019-01-21T05:30:01.285Z,81.11
2019-01-21T05:31:01.271Z,80.79
2019-01-21T05:32:01.273Z,81.21
2019-01-21T05:33:01.364Z,80.41
2019-01-21T05:34:01.278Z,81.04
2019-01-21T05:35:01.218Z,81.35
2019-01-21T05:37:39.431Z,81.25
2019-01-21T05:38:39.410Z,81.35
2019-01-21T05:39:39.415Z,81.46
2019-01-21T05:40:39.371Z,81.25
2019-01-21T05:41:39.363Z,81.43
2019-01-21T05:42:39.400Z,81.53
2019-01-21T05:43:39.442Z,81.21
2019-01-21T05:44:39.358Z,81.32
2019-01-21T05:45:39.362Z,81.11
2019-01-21T05:46:39.306Z,80.73
2019-01-21T05:47:39.407Z,80.73
2019-01-21T05:48:39.348Z,81.35
2019-01-21T05:49:39.347Z,81.35
2019-01-21T05:50:39.270Z,81.46
2019-01-21T05:51:39.281Z,81.46
2019-01-21T05:52:39.271Z,81.35
2019-01-21T05:53:39.247Z,81.35
2019-01-21T05:54:39.307Z,81.57
2019-01-21T05:55:39.219Z,81.21
2019-01-21T05:56:39.201Z,80.79
2019-01-21T05:57:39.204Z,80.73
2019-01-21T05:58:39.180Z,80.93
2019-01-21T05:59:39.209Z,80.41
2019-01-21T06:00:39.160Z,80.09
2019-01-21T06:01:39.156Z,80.30
2019-01-21T06:02:39.156Z,79.88
2019-01-21T06:03:39.134Z,79.77
2019-01-21T06:04:39.151Z,79.67
2019-01-21T06:05:39.109Z,79.67
2019-01-21T06:06:39.133Z,79.67
2019-01-21T06:07:39.088Z,79.77
2019-01-21T06:08:39.076Z,79.88
2019-01-21T06:09:39.065Z,79.49
2019-01-21T06:10:39.083Z,79.71
2019-01-21T06:11:39.044Z,79.88
2019-01-21T06:12:39.035Z,79.91
2019-01-21T06:13:39.047Z,79.49
2019-01-21T06:14:39.011Z,80.02
2019-01-21T06:15:39.018Z,80.33
2019-01-21T06:16:39.007Z,80.65
2019-01-21T06:17:38.983Z,80.65
2019-01-21T06:18:38.982Z,80.65
2019-01-21T06:19:38.961Z,80.97
2019-01-21T06:20:38.972Z,80.65
2019-01-21T06:21:38.945Z,80.65
2019-01-21T06:22:38.929Z,81.29
2019-01-21T06:23:38.920Z,80.69
2019-01-21T06:24:38.936Z,81.08
2019-01-21T06:25:38.919Z,81.08
2019-01-21T06:26:38.888Z,80.90
2019-01-21T06:27:38.885Z,80.87
2019-01-21T06:28:38.867Z,81.12
2019-01-21T06:29:38.900Z,81.01
2019-01-21T06:30:38.883Z,80.90
2019-01-21T06:31:38.870Z,80.90
2019-01-21T06:32:38.834Z,80.69
2019-01-21T06:33:38.817Z,81.32
2019-01-21T06:34:38.814Z,81.43
2019-01-21T06:35:38.816Z,81.64
2019-01-21T06:36:38.780Z,81.64
2019-01-21T06:37:38.796Z,81.74
2019-01-21T06:38:38.773Z,81.85
2019-01-21T06:39:38.811Z,81.43
2019-01-21T06:40:38.771Z,81.32
2019-01-21T06:41:38.754Z,81.22
2019-01-21T06:42:38.723Z,81.43
2019-01-21T06:43:38.708Z,81.43
2019-01-21T06:44:38.704Z,81.32
2019-01-21T06:45:38.734Z,81.64
2019-01-21T06:46:38.685Z,81.43
2019-01-21T06:47:38.669Z,81.64
2019-01-21T06:48:38.661Z,81.54
2019-01-21T06:49:38.646Z,81.43
2019-01-21T06:50:38.662Z,81.32
2019-01-21T06:51:38.627Z,81.43
2019-01-21T06:52:38.625Z,81.54
2019-01-21T06:53:38.656Z,81.22
2019-01-21T06:54:38.602Z,81.32
2019-01-21T06:55:38.592Z,81.22
2019-01-21T06:56:38.594Z,81.22
2019-01-21T06:57:38.564Z,81.43
2019-01-21T06:58:38.648Z,81.74
2019-01-21T06:59:38.593Z,81.32
2019-01-21T07:00:38.553Z,82.17
2019-01-21T07:01:38.559Z,81.74
2019-01-21T07:02:38.538Z,81.74
2019-01-21T07:03:38.514Z,81.32
2019-01-21T07:04:38.504Z,81.96
2019-01-21T07:05:38.486Z,81.96
2019-01-21T07:06:38.504Z,81.85
2019-01-21T07:07:38.462Z,81.96
2019-01-21T07:08:38.451Z,81.71
2019-01-21T07:09:38.444Z,81.43
2019-01-21T07:10:38.433Z,81.64
2019-01-21T07:11:38.426Z,81.74
2019-01-21T07:12:38.433Z,81.43
2019-01-21T07:13:38.414Z,81.22
2019-01-21T07:14:38.419Z,81.12
2019-01-21T07:15:38.389Z,80.80
2019-01-21T07:16:38.372Z,80.80
2019-01-21T07:17:38.452Z,80.80
2019-01-21T07:18:38.349Z,80.37
2019-01-21T07:19:38.356Z,80.48
2019-01-21T07:20:38.334Z,80.48
2019-01-21T07:21:38.401Z,80.16
2019-01-21T07:22:38.312Z,80.30
2019-01-21T07:23:38.338Z,80.20
2019-01-21T07:24:38.290Z,80.52
2019-01-21T07:25:38.288Z,81.15
2019-01-21T07:26:38.269Z,80.94
2019-01-21T07:27:38.257Z,80.94
2019-01-21T07:28:38.292Z,81.04
2019-01-21T07:29:38.250Z,81.26
2019-01-21T07:30:38.225Z,80.94
2019-01-21T07:31:38.215Z,81.46
2019-01-21T07:32:38.206Z,81.26
2019-01-21T07:33:38.211Z,81.74
2019-01-21T07:34:38.208Z,81.46
2019-01-21T07:35:38.229Z,81.22
2019-01-21T07:36:38.270Z,80.90
2019-01-21T07:37:38.176Z,81.43
2019-01-21T07:38:38.273Z,80.80
2019-01-21T07:39:38.152Z,80.83
2019-01-21T07:40:38.117Z,81.32
2019-01-21T07:41:38.128Z,80.37
2019-01-21T07:42:38.108Z,80.37
2019-01-21T07:43:38.090Z,80.37
2019-01-21T07:44:38.140Z,80.05
2019-01-21T07:45:41.446Z,80.09
2019-01-21T07:46:38.059Z,79.74
2019-01-21T07:47:38.098Z,79.85
2019-01-21T07:48:38.036Z,79.85
2019-01-21T07:49:38.109Z,79.74
2019-01-21T07:50:38.031Z,79.74
2019-01-21T07:51:38.003Z,79.32
2019-01-21T07:52:38.034Z,79.43
2019-01-21T07:53:37.988Z,79.32
2019-01-21T07:54:38.035Z,79.21
2019-01-21T07:55:37.963Z,79.21
2019-01-21T07:56:37.950Z,79.32
2019-01-21T07:57:37.941Z,79.32
2019-01-21T07:58:37.932Z,79.57
2019-01-21T07:59:37.973Z,79.35
2019-01-21T08:00:37.915Z,79.32
2019-01-21T08:01:37.907Z,79.32
2019-01-21T08:02:37.889Z,79.35
2019-01-21T08:03:37.886Z,79.32
2019-01-21T08:04:37.867Z,79.32
2019-01-21T08:05:37.887Z,79.46
2019-01-21T08:06:37.869Z,79.25
2019-01-21T08:07:37.837Z,79.35
2019-01-21T08:08:37.875Z,79.21
2019-01-21T08:09:37.889Z,79.32
2019-01-21T08:10:37.899Z,79.21
2019-01-21T08:11:37.806Z,79.21
2019-01-21T08:12:37.832Z,79.32
2019-01-21T08:13:37.845Z,79.21
2019-01-21T08:14:37.785Z,79.32
2019-01-21T08:15:37.884Z,79.11
2019-01-21T08:16:37.746Z,79.43
2019-01-21T08:17:37.732Z,79.43
2019-01-21T08:18:37.720Z,79.43
2019-01-21T08:19:37.713Z,79.43
2019-01-21T08:20:37.718Z,79.53
2019-01-21T08:21:37.687Z,79.00
2019-01-21T08:22:37.678Z,79.00
2019-01-21T08:23:37.669Z,79.39
2019-01-21T08:24:37.659Z,78.97
2019-01-21T08:25:37.777Z,79.39
2019-01-21T08:26:37.636Z,79.39
2019-01-21T08:27:37.687Z,79.49
2019-01-21T08:28:37.636Z,79.07
2019-01-21T08:29:37.612Z,78.97
2019-01-21T08:30:37.625Z,78.44
2019-01-21T08:31:37.615Z,78.54
2019-01-21T08:32:37.614Z,78.22
2019-01-21T08:33:37.586Z,78.12
2019-01-21T08:34:37.589Z,78.12
2019-01-21T08:35:37.564Z,78.33
2019-01-21T08:36:37.537Z,78.40
2019-01-21T08:37:37.524Z,78.22
2019-01-21T08:38:37.517Z,77.87
2019-01-21T08:39:37.503Z,77.66
2019-01-21T08:40:37.492Z,77.87
2019-01-21T08:41:37.495Z,77.24
2019-01-21T08:42:37.471Z,77.34
2019-01-21T08:43:37.463Z,77.14
2019-01-21T08:44:37.457Z,77.45
2019-01-21T08:45:37.444Z,76.61
2019-01-21T08:46:37.456Z,77.24
2019-01-21T08:47:37.430Z,77.34
2019-01-21T08:48:37.412Z,76.82
2019-01-21T08:49:37.403Z,77.14
2019-01-21T08:50:37.395Z,77.45
2019-01-21T08:51:37.434Z,77.24
2019-01-21T08:52:37.366Z,77.24
2019-01-21T08:53:37.362Z,76.92
2019-01-21T08:54:37.353Z,76.18
2019-01-21T08:55:37.343Z,76.18
2019-01-21T08:56:37.371Z,77.45
2019-01-21T08:57:37.320Z,76.82
2019-01-21T08:58:37.302Z,76.78
2019-01-21T08:59:37.294Z,77.20
2019-01-21T09:00:37.287Z,77.42
2019-01-21T09:01:37.276Z,76.89
2019-01-21T09:02:37.291Z,76.26
2019-01-21T09:03:37.262Z,75.84
2019-01-21T09:04:37.247Z,76.04
2019-01-21T09:05:37.251Z,77.10
2019-01-21T09:06:37.225Z,76.89
2019-01-21T09:07:37.235Z,76.78
2019-01-21T09:08:37.670Z,76.64
2019-01-21T09:09:37.191Z,76.43
2019-01-21T09:10:37.193Z,76.75
2019-01-21T09:11:37.181Z,76.75
2019-01-21T09:12:37.230Z,76.54
2019-01-21T09:13:37.189Z,76.43
2019-01-21T09:14:37.178Z,76.01
2019-01-21T09:15:37.129Z,76.22
2019-01-21T09:16:37.156Z,76.12
2019-01-21T09:17:37.105Z,75.90
2019-01-21T09:18:37.119Z,75.34
2019-01-21T09:19:37.456Z,75.90
2019-01-21T09:20:37.112Z,75.45
2019-01-21T09:21:37.072Z,75.45
2019-01-21T09:22:37.052Z,75.87
2019-01-21T09:23:37.087Z,75.21
2019-01-21T09:24:37.039Z,76.08
2019-01-21T09:25:37.025Z,75.87
2019-01-21T09:26:37.015Z,75.63
2019-01-21T09:27:37.002Z,75.84
2019-01-21T09:28:36.998Z,75.42
2019-01-21T09:29:37.002Z,75.63
2019-01-21T09:30:36.982Z,75.84
2019-01-21T09:31:36.958Z,76.05
2019-01-21T09:32:36.964Z,75.31
2019-01-21T09:33:36.984Z,74.99
2019-01-21T09:34:38.020Z,74.89
2019-01-21T09:35:36.919Z,74.89
2019-01-21T09:36:36.909Z,74.96
2019-01-21T09:37:36.897Z,74.54
2019-01-21T09:38:36.890Z,74.54
2019-01-21T09:39:36.901Z,74.65
2019-01-21T09:40:44.424Z,74.43
2019-01-21T09:41:36.855Z,74.68
2019-01-21T09:42:36.876Z,74.85
2019-01-21T09:43:36.836Z,74.68
2019-01-21T09:44:36.824Z,74.79
2019-01-21T09:45:36.813Z,74.85
2019-01-21T09:46:36.814Z,74.65
2019-01-21T09:47:36.814Z,74.75
2019-01-21T09:48:36.835Z,74.43
2019-01-21T09:49:36.776Z,74.43
2019-01-21T09:50:36.768Z,74.61
2019-01-21T09:51:44.305Z,74.40
2019-01-21T09:52:44.289Z,74.51
2019-01-21T09:53:45.701Z,73.66
2019-01-21T09:54:36.719Z,73.98
2019-01-21T09:55:36.709Z,73.66
2019-01-21T09:56:36.705Z,73.77
2019-01-21T09:57:36.693Z,74.08
2019-01-21T09:58:46.734Z,73.66
2019-01-21T09:59:36.674Z,73.46
2019-01-21T10:00:44.203Z,73.46
2019-01-21T10:01:44.196Z,73.35
2019-01-21T10:02:36.642Z,72.96
2019-01-21T10:03:45.317Z,72.72
2019-01-21T10:04:36.618Z,73.77
2019-01-21T10:05:36.610Z,73.88
2019-01-21T10:06:36.597Z,73.88
2019-01-21T10:07:36.587Z,73.98
2019-01-21T10:08:36.600Z,74.19
2019-01-21T10:09:36.564Z,74.61
2019-01-21T10:10:36.727Z,74.37
2019-01-21T10:11:36.725Z,74.16
2019-01-21T10:12:36.747Z,73.21
2019-01-21T10:13:36.690Z,73.21
2019-01-21T10:14:36.633Z,73.88
2019-01-21T10:15:36.506Z,73.84
2019-01-21T10:16:36.499Z,73.66
2019-01-21T10:17:36.482Z,74.16
2019-01-21T10:18:45.022Z,74.05
2019-01-21T10:19:50.472Z,74.16
2019-01-21T10:21:46.675Z,74.68
2019-01-21T10:22:54.217Z,74.54
2019-01-21T10:23:54.226Z,74.58
2019-01-21T10:24:46.666Z,74.44
2019-01-21T10:25:46.636Z,74.33
2019-01-21T10:26:54.177Z,73.91
2019-01-21T10:27:55.169Z,73.81
2019-01-21T10:28:46.612Z,73.91
2019-01-21T10:29:46.593Z,73.81
2019-01-21T10:30:57.569Z,74.09
2019-01-21T10:31:59.315Z,73.60
2019-01-21T10:32:47.559Z,73.25
2019-01-21T10:33:46.552Z,73.25
2019-01-21T10:34:46.555Z,73.46
2019-01-21T10:35:46.555Z,73.67
2019-01-21T10:36:46.516Z,73.99
2019-01-21T10:37:46.509Z,73.35
2019-01-21T10:38:46.715Z,73.77
2019-01-21T10:39:46.610Z,73.88
2019-01-21T10:40:46.664Z,73.88
2019-01-21T10:41:46.551Z,73.57
2019-01-21T10:42:46.522Z,73.77
2019-01-21T10:43:46.512Z,73.88
2019-01-21T10:44:46.445Z,73.77
2019-01-21T10:45:46.431Z,73.57
2019-01-21T10:46:46.430Z,73.77
2019-01-21T10:47:46.401Z,73.99
2019-01-21T10:48:46.392Z,73.74
2019-01-21T10:49:46.380Z,73.77
2019-01-21T10:50:46.474Z,73.77
2019-01-21T10:51:46.382Z,73.99
2019-01-21T10:52:46.349Z,74.37
2019-01-21T10:53:46.351Z,74.48
2019-01-21T10:54:46.326Z,73.63
2019-01-21T10:55:46.317Z,73.74
2019-01-21T10:56:46.308Z,73.32
2019-01-21T10:57:46.314Z,73.22
2019-01-21T10:58:53.833Z,73.22
2019-01-21T10:59:46.278Z,73.22
2019-01-21T11:00:46.263Z,73.60
2019-01-21T11:01:53.806Z,73.22
2019-01-21T11:02:46.265Z,73.22
2019-01-21T11:03:46.243Z,73.28
2019-01-21T11:04:46.230Z,73.11
2019-01-21T11:05:46.212Z,73.28
2019-01-21T11:06:46.208Z,73.08
2019-01-21T11:07:46.375Z,73.18
2019-01-21T11:08:46.409Z,73.28
2019-01-21T11:09:46.170Z,73.28
2019-01-21T11:10:46.166Z,73.08
2019-01-21T11:11:46.148Z,72.86
2019-01-21T11:12:46.139Z,73.08
2019-01-21T11:13:46.157Z,72.66
2019-01-21T11:14:46.170Z,72.66
2019-01-21T11:15:46.104Z,73.18
2019-01-21T11:16:46.093Z,73.18
2019-01-21T11:17:46.082Z,73.18
2019-01-21T11:18:54.706Z,72.55
2019-01-21T11:19:46.062Z,72.97
2019-01-21T11:20:53.618Z,73.18
2019-01-21T11:21:46.043Z,73.36
2019-01-21T11:22:46.036Z,73.36
2019-01-21T11:23:46.025Z,73.68
2019-01-21T11:24:46.037Z,73.15
2019-01-21T11:25:54.552Z,72.63
2019-01-21T11:26:46.052Z,73.15
2019-01-21T11:27:45.986Z,72.94
2019-01-21T11:28:45.979Z,72.31
2019-01-21T11:29:54.812Z,72.41
2019-01-21T11:30:45.948Z,73.04
2019-01-21T11:31:45.939Z,73.36
2019-01-21T11:32:45.961Z,73.46
2019-01-21T11:33:45.919Z,73.25
2019-01-21T11:34:45.933Z,73.25
2019-01-21T11:35:45.929Z,73.68
2019-01-21T11:36:45.930Z,73.54
2019-01-21T11:37:48.960Z,73.46
2019-01-21T11:38:45.905Z,73.43
2019-01-21T11:39:45.985Z,73.11
2019-01-21T11:40:45.902Z,73.22
2019-01-21T11:41:45.881Z,73.15
2019-01-21T11:42:45.830Z,73.01
2019-01-21T11:43:45.815Z,72.80
2019-01-21T11:44:45.827Z,72.59
2019-01-21T11:45:45.790Z,72.83
2019-01-21T11:46:45.789Z,72.49
2019-01-21T11:47:45.791Z,72.49
2019-01-21T11:48:45.768Z,72.38
2019-01-21T11:49:45.751Z,72.80
2019-01-21T11:50:45.788Z,72.14
2019-01-21T11:51:45.745Z,72.80
2019-01-21T11:52:45.718Z,72.66
2019-01-21T11:53:53.269Z,72.66
2019-01-21T11:54:45.695Z,72.66
2019-01-21T11:55:45.718Z,72.24
2019-01-21T11:56:45.675Z,72.77
2019-01-21T11:57:45.669Z,72.56
2019-01-21T11:58:45.663Z,71.93
2019-01-21T11:59:45.642Z,72.14
2019-01-21T12:00:52.919Z,72.03
2019-01-21T12:01:45.620Z,72.24
2019-01-21T12:02:45.609Z,72.03
2019-01-21T12:03:45.597Z,72.38
2019-01-21T12:04:45.589Z,72.38
2019-01-21T12:05:45.584Z,72.38
2019-01-21T12:06:45.587Z,72.28
2019-01-21T12:07:45.557Z,72.14
2019-01-21T12:08:45.549Z,72.24
2019-01-21T12:09:45.543Z,71.93
2019-01-21T12:10:45.531Z,72.21
2019-01-21T12:11:45.528Z,72.03
2019-01-21T12:12:45.509Z,72.21
2019-01-21T12:13:45.498Z,72.31
2019-01-21T12:14:45.499Z,71.06
2019-01-21T12:15:45.488Z,71.06
2019-01-21T12:16:45.543Z,70.78
2019-01-21T12:17:45.494Z,70.64
2019-01-21T12:18:45.449Z,70.95
2019-01-21T12:19:45.443Z,70.75
2019-01-21T12:20:45.464Z,70.53
2019-01-21T12:21:45.435Z,70.32
2019-01-21T12:22:45.455Z,70.75
2019-01-21T12:23:45.460Z,70.85
2019-01-21T12:24:45.483Z,70.64
2019-01-21T12:25:45.362Z,70.22
2019-01-21T12:26:45.355Z,70.43
2019-01-21T12:27:45.415Z,70.75
2019-01-21T12:28:45.427Z,70.50
2019-01-21T12:29:45.410Z,70.18
2019-01-21T12:30:45.330Z,70.29
2019-01-21T12:31:45.300Z,70.18
2019-01-21T12:32:45.315Z,69.45
2019-01-21T12:33:45.463Z,69.24
2019-01-21T12:34:45.271Z,70.26
2019-01-21T12:35:45.282Z,70.26
2019-01-21T12:36:45.322Z,69.42
2019-01-21T12:37:45.335Z,69.11
2019-01-21T12:38:45.251Z,68.69
2019-01-21T12:39:45.241Z,69.74
2019-01-21T12:40:45.205Z,70.37
2019-01-21T12:41:45.219Z,69.11
2019-01-21T12:42:45.216Z,68.90
2019-01-21T12:43:45.223Z,69.11
2019-01-21T12:44:45.184Z,68.90
2019-01-21T12:45:45.156Z,68.90
2019-01-21T12:46:45.140Z,68.79
2019-01-21T12:47:45.209Z,69.00
2019-01-21T12:48:45.119Z,69.11
2019-01-21T12:49:45.130Z,69.21
2019-01-21T12:50:45.109Z,69.42
2019-01-21T12:51:46.264Z,68.79
2019-01-21T12:52:45.095Z,69.00
2019-01-21T12:53:45.100Z,69.18
2019-01-21T12:54:45.106Z,69.29
2019-01-21T12:55:45.048Z,69.18
2019-01-21T12:56:45.047Z,68.76
2019-01-21T12:57:45.030Z,68.87
2019-01-21T12:58:45.016Z,68.66
2019-01-21T12:59:45.014Z,68.45
2019-01-21T13:00:45.040Z,68.13
2019-01-21T13:01:44.984Z,68.13
2019-01-21T13:02:44.972Z,68.24
2019-01-21T13:03:44.976Z,68.24
2019-01-21T13:04:44.961Z,68.34